sensor_id;sensor_type;location;lat;lon;timestamp;pressure;altitude;pressure_sealevel;temperature;humidity
11808;BME280;5961;42.640;23.380;2023-04-01T00:01:25;93182.63;;;14.55;55.03
11808;BME280;5961;42.640;23.380;2023-04-01T00:03:51;93194.06;;;14.48;55.70
11808;BME280;5961;42.640;23.380;2023-04-01T00:06:19;93198.22;;;14.35;56.38
11808;BME280;5961;42.640;23.380;2023-04-01T00:08:46;93201.19;;;14.26;56.43
11808;BME280;5961;42.640;23.380;2023-04-01T00:11:13;93203.78;;;14.12;57.08
11808;BME280;5961;42.640;23.380;2023-04-01T00:13:40;93202.25;;;14.08;57.14
11808;BME280;5961;42.640;23.380;2023-04-01T00:16:07;93199.53;;;14.01;57.54
11808;BME280;5961;42.640;23.380;2023-04-01T00:18:35;93192.19;;;13.84;58.35
11808;BME280;5961;42.640;23.380;2023-04-01T00:21:02;93202.78;;;13.73;59.05
11808;BME280;5961;42.640;23.380;2023-04-01T00:23:29;93201.53;;;13.56;59.51
11808;BME280;5961;42.640;23.380;2023-04-01T00:25:56;93202.56;;;13.45;60.12
11808;BME280;5961;42.640;23.380;2023-04-01T00:28:25;93199.44;;;13.32;60.73
11808;BME280;5961;42.640;23.380;2023-04-01T00:30:52;93193.25;;;13.25;61.24
11808;BME280;5961;42.640;23.380;2023-04-01T00:33:18;93184.69;;;13.05;61.62
11808;BME280;5961;42.640;23.380;2023-04-01T00:35:47;93197.72;;;13.10;62.02
11808;BME280;5961;42.640;23.380;2023-04-01T00:38:13;93198.97;;;12.86;62.95
11808;BME280;5961;42.640;23.380;2023-04-01T00:40:43;93219.19;;;12.87;62.92
11808;BME280;5961;42.640;23.380;2023-04-01T00:43:12;93177.66;;;12.86;62.67
11808;BME280;5961;42.640;23.380;2023-04-01T00:45:41;93186.72;;;12.78;63.06
11808;BME280;5961;42.640;23.380;2023-04-01T00:48:10;93169.47;;;12.69;63.22
11808;BME280;5961;42.640;23.380;2023-04-01T00:50:39;93165.34;;;12.75;63.43
11808;BME280;5961;42.640;23.380;2023-04-01T00:53:08;93159.94;;;12.68;63.47
11808;BME280;5961;42.640;23.380;2023-04-01T00:55:40;93167.94;;;12.68;63.53
11808;BME280;5961;42.640;23.380;2023-04-01T00:58:13;93158.34;;;12.59;63.39
11808;BME280;5961;42.640;23.380;2023-04-01T01:00:41;93163.25;;;12.57;64.25
11808;BME280;5961;42.640;23.380;2023-04-01T01:03:08;93159.84;;;12.57;63.36
11808;BME280;5961;42.640;23.380;2023-04-01T01:05:47;93152.66;;;12.28;64.10
11808;BME280;5961;42.640;23.380;2023-04-01T01:08:30;93144.28;;;12.26;64.09
11808;BME280;5961;42.640;23.380;2023-04-01T01:11:02;93143.16;;;12.30;64.53
11808;BME280;5961;42.640;23.380;2023-04-01T01:13:35;93136.31;;;12.29;64.50
11808;BME280;5961;42.640;23.380;2023-04-01T01:16:06;93132.84;;;12.25;64.44
11808;BME280;5961;42.640;23.380;2023-04-01T01:18:43;93123.31;;;12.24;64.65
11808;BME280;5961;42.640;23.380;2023-04-01T01:21:37;93119.19;;;12.30;64.43
11808;BME280;5961;42.640;23.380;2023-04-01T01:24:21;93110.03;;;12.28;64.67
11808;BME280;5961;42.640;23.380;2023-04-01T01:27:00;93119.28;;;12.37;64.63
11808;BME280;5961;42.640;23.380;2023-04-01T01:29:57;93137.59;;;12.42;63.40
11808;BME280;5961;42.640;23.380;2023-04-01T01:35:31;93090.50;;;12.53;63.15
11808;BME280;5961;42.640;23.380;2023-04-01T01:38:02;93045.78;;;12.36;62.24
11808;BME280;5961;42.640;23.380;2023-04-01T01:40:31;93093.00;;;12.76;60.85
11808;BME280;5961;42.640;23.380;2023-04-01T01:43:04;93092.97;;;12.73;58.40
11808;BME280;5961;42.640;23.380;2023-04-01T01:45:34;93101.03;;;12.80;58.87
11808;BME280;5961;42.640;23.380;2023-04-01T01:48:04;93100.66;;;12.81;58.95
11808;BME280;5961;42.640;23.380;2023-04-01T01:50:33;93104.53;;;12.91;58.22
11808;BME280;5961;42.640;23.380;2023-04-01T01:53:04;93103.84;;;12.97;58.23
11808;BME280;5961;42.640;23.380;2023-04-01T01:55:33;93094.28;;;12.93;58.09
11808;BME280;5961;42.640;23.380;2023-04-01T01:58:04;93090.63;;;13.08;57.85
11808;BME280;5961;42.640;23.380;2023-04-01T02:00:34;93081.16;;;13.14;57.90
11808;BME280;5961;42.640;23.380;2023-04-01T02:03:01;93075.44;;;13.19;57.53
11808;BME280;5961;42.640;23.380;2023-04-01T02:05:29;93073.16;;;13.21;57.30
11808;BME280;5961;42.640;23.380;2023-04-01T02:08:02;93088.84;;;13.26;57.19
11808;BME280;5961;42.640;23.380;2023-04-01T02:10:35;93089.69;;;13.37;56.32
11808;BME280;5961;42.640;23.380;2023-04-01T02:13:07;93042.25;;;13.13;56.03
11808;BME280;5961;42.640;23.380;2023-04-01T02:15:40;93069.91;;;13.45;55.93
11808;BME280;5961;42.640;23.380;2023-04-01T02:18:07;93052.38;;;13.44;55.72
11808;BME280;5961;42.640;23.380;2023-04-01T02:20:35;93060.00;;;13.49;55.44
11808;BME280;5961;42.640;23.380;2023-04-01T02:23:07;93056.22;;;13.50;55.13
11808;BME280;5961;42.640;23.380;2023-04-01T02:25:35;93061.56;;;13.54;54.67
11808;BME280;5961;42.640;23.380;2023-04-01T02:28:04;93043.63;;;13.47;54.70
11808;BME280;5961;42.640;23.380;2023-04-01T02:30:34;93060.81;;;13.60;54.61
11808;BME280;5961;42.640;23.380;2023-04-01T02:33:03;93052.47;;;13.62;54.77
11808;BME280;5961;42.640;23.380;2023-04-01T02:35:30;93047.47;;;13.60;54.78
11808;BME280;5961;42.640;23.380;2023-04-01T02:37:59;93057.81;;;13.65;54.89
11808;BME280;5961;42.640;23.380;2023-04-01T02:40:27;93041.81;;;13.65;54.21
11808;BME280;5961;42.640;23.380;2023-04-01T02:42:54;93060.50;;;13.65;54.63
11808;BME280;5961;42.640;23.380;2023-04-01T02:45:20;93070.00;;;13.59;54.95
11808;BME280;5961;42.640;23.380;2023-04-01T02:47:47;93047.06;;;13.55;53.73
11808;BME280;5961;42.640;23.380;2023-04-01T02:50:15;93059.31;;;13.63;54.37
11808;BME280;5961;42.640;23.380;2023-04-01T02:52:41;93076.50;;;13.69;53.93
11808;BME280;5961;42.640;23.380;2023-04-01T02:55:09;93066.22;;;13.67;53.76
11808;BME280;5961;42.640;23.380;2023-04-01T02:57:37;93073.09;;;13.68;53.90
11808;BME280;5961;42.640;23.380;2023-04-01T03:00:04;93070.81;;;13.70;53.99
11808;BME280;5961;42.640;23.380;2023-04-01T03:02:37;93070.81;;;13.70;53.82
11808;BME280;5961;42.640;23.380;2023-04-01T03:05:04;93073.03;;;13.61;54.59
11808;BME280;5961;42.640;23.380;2023-04-01T03:07:31;93089.88;;;13.72;54.16
11808;BME280;5961;42.640;23.380;2023-04-01T03:09:58;93083.00;;;13.68;54.21
11808;BME280;5961;42.640;23.380;2023-04-01T03:12:24;93060.72;;;13.43;53.88
11808;BME280;5961;42.640;23.380;2023-04-01T03:14:52;93092.19;;;13.74;54.17
11808;BME280;5961;42.640;23.380;2023-04-01T03:17:19;93094.84;;;13.70;54.49
11808;BME280;5961;42.640;23.380;2023-04-01T03:19:46;93095.53;;;13.60;54.97
11808;BME280;5961;42.640;23.380;2023-04-01T03:22:12;93090.25;;;13.67;55.57
11808;BME280;5961;42.640;23.380;2023-04-01T03:24:39;93115.00;;;13.64;55.19
11808;BME280;5961;42.640;23.380;2023-04-01T03:27:06;93088.28;;;13.61;55.07
11808;BME280;5961;42.640;23.380;2023-04-01T03:29:33;93101.97;;;13.52;52.07
11808;BME280;5961;42.640;23.380;2023-04-01T03:32:01;93112.63;;;13.49;51.54
11808;BME280;5961;42.640;23.380;2023-04-01T03:34:28;93104.59;;;13.45;55.56
11808;BME280;5961;42.640;23.380;2023-04-01T03:36:54;93104.94;;;13.40;52.30
11808;BME280;5961;42.640;23.380;2023-04-01T03:39:21;93080.47;;;13.28;52.87
11808;BME280;5961;42.640;23.380;2023-04-01T03:41:48;93105.66;;;13.34;55.61
11808;BME280;5961;42.640;23.380;2023-04-01T03:44:14;93072.84;;;13.26;57.55
11808;BME280;5961;42.640;23.380;2023-04-01T03:46:41;93078.09;;;13.15;58.44
11808;BME280;5961;42.640;23.380;2023-04-01T03:49:10;93083.47;;;13.19;57.85
11808;BME280;5961;42.640;23.380;2023-04-01T03:51:37;93074.31;;;13.16;58.06
11808;BME280;5961;42.640;23.380;2023-04-01T03:54:05;93061.28;;;13.08;57.18
11808;BME280;5961;42.640;23.380;2023-04-01T03:56:32;93051.31;;;13.01;57.55
11808;BME280;5961;42.640;23.380;2023-04-01T03:59:01;93033.81;;;13.07;61.13
11808;BME280;5961;42.640;23.380;2023-04-01T04:01:28;93006.28;;;12.96;61.74
11808;BME280;5961;42.640;23.380;2023-04-01T04:03:56;93014.78;;;13.09;62.15
11808;BME280;5961;42.640;23.380;2023-04-01T04:06:24;92999.50;;;13.06;62.40
11808;BME280;5961;42.640;23.380;2023-04-01T04:08:51;93011.31;;;13.05;62.47
11808;BME280;5961;42.640;23.380;2023-04-01T04:11:19;93013.97;;;13.01;62.70
11808;BME280;5961;42.640;23.380;2023-04-01T04:13:46;92996.84;;;13.06;62.45
11808;BME280;5961;42.640;23.380;2023-04-01T04:16:14;92993.41;;;13.02;61.97
11808;BME280;5961;42.640;23.380;2023-04-01T04:18:41;92983.09;;;13.00;61.92
11808;BME280;5961;42.640;23.380;2023-04-01T04:21:11;92974.34;;;13.03;61.73
11808;BME280;5961;42.640;23.380;2023-04-01T04:23:40;92946.88;;;12.99;61.39
11808;BME280;5961;42.640;23.380;2023-04-01T04:26:08;92974.69;;;12.95;61.58
11808;BME280;5961;42.640;23.380;2023-04-01T04:28:35;92975.13;;;13.07;61.15
11808;BME280;5961;42.640;23.380;2023-04-01T04:31:02;92934.56;;;12.74;60.58
11808;BME280;5961;42.640;23.380;2023-04-01T04:33:30;92951.84;;;13.01;60.44
11808;BME280;5961;42.640;23.380;2023-04-01T04:35:58;92952.97;;;12.93;59.35
11808;BME280;5961;42.640;23.380;2023-04-01T04:38:26;92959.03;;;12.93;59.43
11808;BME280;5961;42.640;23.380;2023-04-01T04:40:54;92943.41;;;12.88;59.92
11808;BME280;5961;42.640;23.380;2023-04-01T04:43:21;92930.81;;;12.85;59.96
11808;BME280;5961;42.640;23.380;2023-04-01T04:45:48;92933.88;;;12.91;59.66
11808;BME280;5961;42.640;23.380;2023-04-01T04:48:16;92909.06;;;12.80;59.62
11808;BME280;5961;42.640;23.380;2023-04-01T04:50:44;92914.88;;;12.96;59.09
11808;BME280;5961;42.640;23.380;2023-04-01T04:53:11;92918.28;;;12.93;59.11
11808;BME280;5961;42.640;23.380;2023-04-01T04:55:42;92904.19;;;12.92;58.51
11808;BME280;5961;42.640;23.380;2023-04-01T04:58:10;92906.84;;;12.89;58.46
11808;BME280;5961;42.640;23.380;2023-04-01T05:00:37;92896.56;;;12.91;58.60
11808;BME280;5961;42.640;23.380;2023-04-01T05:03:04;92891.19;;;12.80;58.66
11808;BME280;5961;42.640;23.380;2023-04-01T05:05:30;92903.41;;;12.92;58.37
11808;BME280;5961;42.640;23.380;2023-04-01T05:07:57;92901.88;;;12.91;58.33
11808;BME280;5961;42.640;23.380;2023-04-01T05:10:24;92884.28;;;12.76;58.69
11808;BME280;5961;42.640;23.380;2023-04-01T05:12:51;92903.38;;;12.85;59.03
11808;BME280;5961;42.640;23.380;2023-04-01T05:15:19;92896.56;;;12.87;58.88
11808;BME280;5961;42.640;23.380;2023-04-01T05:17:46;92902.63;;;12.88;59.84
11808;BME280;5961;42.640;23.380;2023-04-01T05:20:13;92907.97;;;12.88;59.92
11808;BME280;5961;42.640;23.380;2023-04-01T05:22:41;92836.91;;;12.44;60.28
11808;BME280;5961;42.640;23.380;2023-04-01T05:25:08;92885.13;;;12.87;60.07
11808;BME280;5961;42.640;23.380;2023-04-01T05:27:35;92875.59;;;12.86;60.68
11808;BME280;5961;42.640;23.380;2023-04-01T05:30:03;92870.63;;;12.88;60.48
11808;BME280;5961;42.640;23.380;2023-04-01T05:32:32;92875.22;;;12.91;60.42
11808;BME280;5961;42.640;23.380;2023-04-01T05:34:58;92879.03;;;12.90;60.55
11808;BME280;5961;42.640;23.380;2023-04-01T05:37:25;92876.00;;;12.95;60.23
11808;BME280;5961;42.640;23.380;2023-04-01T05:39:52;92861.91;;;12.94;60.44
11808;BME280;5961;42.640;23.380;2023-04-01T05:42:18;92861.53;;;12.99;60.64
11808;BME280;5961;42.640;23.380;2023-04-01T05:44:45;92869.19;;;13.01;60.63
11808;BME280;5961;42.640;23.380;2023-04-01T05:47:12;92884.81;;;13.06;60.93
11808;BME280;5961;42.640;23.380;2023-04-01T05:49:40;92893.94;;;13.01;60.99
11808;BME280;5961;42.640;23.380;2023-04-01T05:52:08;92880.63;;;13.05;60.68
11808;BME280;5961;42.640;23.380;2023-04-01T05:54:35;92879.47;;;13.06;59.92
11808;BME280;5961;42.640;23.380;2023-04-01T05:57:01;92874.59;;;13.08;60.25
11808;BME280;5961;42.640;23.380;2023-04-01T05:59:28;92852.50;;;13.11;59.94
11808;BME280;5961;42.640;23.380;2023-04-01T06:01:56;92838.75;;;13.12;59.02
11808;BME280;5961;42.640;23.380;2023-04-01T06:04:23;92798.31;;;12.93;59.28
11808;BME280;5961;42.640;23.380;2023-04-01T06:06:52;92814.72;;;13.02;59.17
11808;BME280;5961;42.640;23.380;2023-04-01T06:09:23;92862.47;;;13.35;58.76
11808;BME280;5961;42.640;23.380;2023-04-01T06:12:13;92868.97;;;13.41;58.01
11808;BME280;5961;42.640;23.380;2023-04-01T06:14:51;92861.72;;;13.45;57.65
11808;BME280;5961;42.640;23.380;2023-04-01T06:17:27;92857.56;;;13.58;56.84
11808;BME280;5961;42.640;23.380;2023-04-01T06:20:03;92870.94;;;13.65;56.36
11808;BME280;5961;42.640;23.380;2023-04-01T06:22:47;92857.22;;;13.70;56.72
11808;BME280;5961;42.640;23.380;2023-04-01T06:25:42;92846.53;;;13.78;56.37
11808;BME280;5961;42.640;23.380;2023-04-01T06:28:35;92861.03;;;13.84;55.33
11808;BME280;5961;42.640;23.380;2023-04-01T06:31:10;92856.84;;;13.90;56.02
11808;BME280;5961;42.640;23.380;2023-04-01T06:33:52;92850.00;;;13.96;55.52
11808;BME280;5961;42.640;23.380;2023-04-01T06:36:51;92853.03;;;13.98;55.39
11808;BME280;5961;42.640;23.380;2023-04-01T06:39:40;92849.59;;;14.01;55.46
11808;BME280;5961;42.640;23.380;2023-04-01T06:42:22;92838.91;;;13.97;55.86
11808;BME280;5961;42.640;23.380;2023-04-01T06:44:58;92845.03;;;13.98;56.08
11808;BME280;5961;42.640;23.380;2023-04-01T06:47:40;92828.25;;;14.04;56.45
11808;BME280;5961;42.640;23.380;2023-04-01T06:50:17;92831.66;;;14.01;56.72
11808;BME280;5961;42.640;23.380;2023-04-01T06:52:55;92819.44;;;13.93;56.77
11808;BME280;5961;42.640;23.380;2023-04-01T06:55:31;92822.50;;;13.95;58.27
11808;BME280;5961;42.640;23.380;2023-04-01T06:58:03;92809.16;;;13.88;59.63
11808;BME280;5961;42.640;23.380;2023-04-01T07:00:35;92812.19;;;13.76;60.37
11808;BME280;5961;42.640;23.380;2023-04-01T07:03:08;92805.31;;;13.75;60.71
11808;BME280;5961;42.640;23.380;2023-04-01T07:05:37;92809.53;;;13.76;61.06
11808;BME280;5961;42.640;23.380;2023-04-01T07:08:06;92808.75;;;13.61;61.48
11808;BME280;5961;42.640;23.380;2023-04-01T07:10:43;92810.69;;;13.71;61.43
11808;BME280;5961;42.640;23.380;2023-04-01T07:13:16;92814.88;;;13.72;62.32
11808;BME280;5961;42.640;23.380;2023-04-01T07:15:57;92806.88;;;13.76;62.34
11808;BME280;5961;42.640;23.380;2023-04-01T07:18:30;92800.75;;;13.79;62.63
11808;BME280;5961;42.640;23.380;2023-04-01T07:20:58;92798.47;;;13.78;63.15
11808;BME280;5961;42.640;23.380;2023-04-01T07:23:28;92793.50;;;13.80;63.48
11808;BME280;5961;42.640;23.380;2023-04-01T07:26:07;92798.47;;;13.78;63.89
11808;BME280;5961;42.640;23.380;2023-04-01T07:28:37;92803.81;;;13.70;64.63
11808;BME280;5961;42.640;23.380;2023-04-01T07:31:13;92803.03;;;13.70;64.98
11808;BME280;5961;42.640;23.380;2023-04-01T07:33:49;92803.03;;;13.56;65.37
11808;BME280;5961;42.640;23.380;2023-04-01T07:36:23;92791.63;;;13.62;65.99
11808;BME280;5961;42.640;23.380;2023-04-01T07:38:59;92801.13;;;13.63;65.54
11808;BME280;5961;42.640;23.380;2023-04-01T07:41:34;92811.06;;;13.59;64.91
11808;BME280;5961;42.640;23.380;2023-04-01T07:44:13;92809.91;;;13.53;66.16
11808;BME280;5961;42.640;23.380;2023-04-01T07:46:56;92796.16;;;13.51;66.47
11808;BME280;5961;42.640;23.380;2023-04-01T07:49:30;92792.34;;;13.52;66.39
11808;BME280;5961;42.640;23.380;2023-04-01T07:52:06;92806.84;;;13.55;66.61
11808;BME280;5961;42.640;23.380;2023-04-01T07:54:40;92794.25;;;13.55;66.78
11808;BME280;5961;42.640;23.380;2023-04-01T07:57:13;92787.78;;;13.53;66.84
11808;BME280;5961;42.640;23.380;2023-04-01T07:59:49;92767.94;;;13.36;66.98
11808;BME280;5961;42.640;23.380;2023-04-01T08:02:30;92795.41;;;13.54;67.03
11808;BME280;5961;42.640;23.380;2023-04-01T08:05:04;92794.25;;;13.48;67.02
11808;BME280;5961;42.640;23.380;2023-04-01T08:07:44;92794.63;;;13.57;67.15
11808;BME280;5961;42.640;23.380;2023-04-01T08:10:17;92767.19;;;13.53;66.98
11808;BME280;5961;42.640;23.380;2023-04-01T08:12:55;92767.19;;;13.53;67.41
11808;BME280;5961;42.640;23.380;2023-04-01T08:15:27;92758.03;;;13.54;67.41
11808;BME280;5961;42.640;23.380;2023-04-01T08:18:04;92780.19;;;13.65;67.23
11808;BME280;5961;42.640;23.380;2023-04-01T08:20:37;92776.34;;;13.70;66.92
11808;BME280;5961;42.640;23.380;2023-04-01T08:23:11;92765.69;;;13.77;66.03
11808;BME280;5961;42.640;23.380;2023-04-01T08:25:43;92756.13;;;13.87;66.29
11808;BME280;5961;42.640;23.380;2023-04-01T08:28:17;92750.41;;;13.92;66.11
11808;BME280;5961;42.640;23.380;2023-04-01T08:30:50;92747.34;;;14.00;65.84
11808;BME280;5961;42.640;23.380;2023-04-01T08:33:23;92735.13;;;14.03;65.22
11808;BME280;5961;42.640;23.380;2023-04-01T08:35:56;92720.63;;;14.04;65.22
11808;BME280;5961;42.640;23.380;2023-04-01T08:38:28;92725.97;;;14.04;64.60
11808;BME280;5961;42.640;23.380;2023-04-01T08:41:00;92714.88;;;14.09;64.58
11808;BME280;5961;42.640;23.380;2023-04-01T08:43:51;92717.53;;;14.16;63.58
11808;BME280;5961;42.640;23.380;2023-04-01T08:46:40;92698.47;;;14.14;63.79
11808;BME280;5961;42.640;23.380;2023-04-01T08:49:26;92700.34;;;14.24;63.87
11808;BME280;5961;42.640;23.380;2023-04-01T08:55:22;92690.78;;;14.41;63.26
11808;BME280;5961;42.640;23.380;2023-04-01T09:00:46;92680.03;;;14.48;62.26
11808;BME280;5961;42.640;23.380;2023-04-01T09:03:37;92697.59;;;14.59;61.20
11808;BME280;5961;42.640;23.380;2023-04-01T09:06:31;92705.19;;;14.64;60.53
11808;BME280;5961;42.640;23.380;2023-04-01T09:12:21;92694.41;;;14.78;58.27
11808;BME280;5961;42.640;23.380;2023-04-01T09:27:44;92682.75;;;15.13;55.67
11808;BME280;5961;42.640;23.380;2023-04-01T09:33:48;92658.53;;;15.31;54.07
11808;BME280;5961;42.640;23.380;2023-04-01T09:36:33;92648.19;;;15.33;53.65
11808;BME280;5961;42.640;23.380;2023-04-01T09:42:13;92667.94;;;15.53;53.45
11808;BME280;5961;42.640;23.380;2023-04-01T09:44:47;92649.50;;;15.62;53.23
11808;BME280;5961;42.640;23.380;2023-04-01T09:47:31;92639.06;;;15.71;53.93
11808;BME280;5961;42.640;23.380;2023-04-01T09:50:17;92647.84;;;15.75;51.04
11808;BME280;5961;42.640;23.380;2023-04-01T09:52:59;92636.75;;;15.77;49.94
11808;BME280;5961;42.640;23.380;2023-04-01T09:59:08;92633.88;;;15.95;51.43
11808;BME280;5961;42.640;23.380;2023-04-01T10:02:25;92625.03;;;16.01;51.42
11808;BME280;5961;42.640;23.380;2023-04-01T10:17:45;92613.19;;;16.29;52.72
11808;BME280;5961;42.640;23.380;2023-04-01T10:23:21;92598.19;;;16.35;53.68
11808;BME280;5961;42.640;23.380;2023-04-01T10:26:19;92604.31;;;16.35;53.78
11808;BME280;5961;42.640;23.380;2023-04-01T10:29:15;92605.03;;;16.39;53.72
11808;BME280;5961;42.640;23.380;2023-04-01T10:32:01;92608.06;;;16.41;53.37
11808;BME280;5961;42.640;23.380;2023-04-01T10:35:34;92597.72;;;16.43;53.57
11808;BME280;5961;42.640;23.380;2023-04-01T10:40:57;92578.94;;;16.43;54.10
11808;BME280;5961;42.640;23.380;2023-04-01T10:50:34;92565.66;;;16.63;53.18
11808;BME280;5961;42.640;23.380;2023-04-01T10:53:36;92572.56;;;16.64;52.70
11808;BME280;5961;42.640;23.380;2023-04-01T10:56:31;92575.56;;;16.66;52.86
11808;BME280;5961;42.640;23.380;2023-04-01T11:11:48;92562.13;;;16.70;53.58
11808;BME280;5961;42.640;23.380;2023-04-01T11:20:58;92552.53;;;16.69;53.26
11808;BME280;5961;42.640;23.380;2023-04-01T11:23:54;92558.72;;;16.66;52.63
11808;BME280;5961;42.640;23.380;2023-04-01T11:26:33;92517.34;;;16.36;44.13
11808;BME280;5961;42.640;23.380;2023-04-01T11:29:23;92554.94;;;16.63;41.82
11808;BME280;5961;42.640;23.380;2023-04-01T11:32:00;92581.72;;;16.67;42.34
11808;BME280;5961;42.640;23.380;2023-04-01T11:34:47;92569.75;;;16.71;42.03
11808;BME280;5961;42.640;23.380;2023-04-01T11:37:24;92593.16;;;16.71;42.56
11808;BME280;5961;42.640;23.380;2023-04-01T11:40:05;92619.22;;;16.70;42.59
11808;BME280;5961;42.640;23.380;2023-04-01T11:42:41;92668.66;;;16.69;43.19
11808;BME280;5961;42.640;23.380;2023-04-01T11:45:34;92666.56;;;16.50;49.33
11808;BME280;5961;42.640;23.380;2023-04-01T11:48:18;92764.53;;;16.21;53.12
11808;BME280;5961;42.640;23.380;2023-04-01T11:53:58;92762.97;;;15.24;61.69
11808;BME280;5961;42.640;23.380;2023-04-01T11:56:41;92810.50;;;14.99;67.86
11808;BME280;5961;42.640;23.380;2023-04-01T11:59:45;92849.97;;;14.31;76.91
11808;BME280;5961;42.640;23.380;2023-04-01T12:02:22;92838.16;;;13.83;79.49
11808;BME280;5961;42.640;23.380;2023-04-01T12:05:20;92854.88;;;13.41;83.55
11808;BME280;5961;42.640;23.380;2023-04-01T12:07:59;92806.78;;;13.16;86.62
11808;BME280;5961;42.640;23.380;2023-04-01T12:10:35;92755.63;;;13.00;88.86
11808;BME280;5961;42.640;23.380;2023-04-01T12:15:52;92776.19;;;12.99;93.64
11808;BME280;5961;42.640;23.380;2023-04-01T12:18:30;92773.19;;;13.04;95.35
11808;BME280;5961;42.640;23.380;2023-04-01T12:21:09;92782.00;;;13.19;95.12
11808;BME280;5961;42.640;23.380;2023-04-01T12:24:00;92752.56;;;12.94;93.67
11808;BME280;5961;42.640;23.380;2023-04-01T12:26:53;92759.84;;;13.01;91.79
11808;BME280;5961;42.640;23.380;2023-04-01T12:32:24;92765.63;;;13.13;88.78
11808;BME280;5961;42.640;23.380;2023-04-01T12:35:05;92744.28;;;13.13;89.28
11808;BME280;5961;42.640;23.380;2023-04-01T12:37:47;92756.09;;;13.16;89.06
11808;BME280;5961;42.640;23.380;2023-04-01T12:40:25;92770.94;;;13.10;90.45
11808;BME280;5961;42.640;23.380;2023-04-01T12:43:05;92787.72;;;13.10;92.06
11808;BME280;5961;42.640;23.380;2023-04-01T12:45:43;92780.78;;;13.06;94.62
11808;BME280;5961;42.640;23.380;2023-04-01T12:51:27;92770.88;;;12.92;96.94
11808;BME280;5961;42.640;23.380;2023-04-01T12:54:18;92783.81;;;12.97;97.44
11808;BME280;5961;42.640;23.380;2023-04-01T12:57:00;92783.81;;;12.94;96.39
11808;BME280;5961;42.640;23.380;2023-04-01T12:59:52;92763.22;;;12.84;94.90
11808;BME280;5961;42.640;23.380;2023-04-01T13:02:31;92749.50;;;12.82;94.68
11808;BME280;5961;42.640;23.380;2023-04-01T13:05:37;92764.75;;;12.92;94.88
11808;BME280;5961;42.640;23.380;2023-04-01T13:08:22;92749.53;;;12.92;95.63
11808;BME280;5961;42.640;23.380;2023-04-01T13:11:08;92749.56;;;12.96;97.16
11808;BME280;5961;42.640;23.380;2023-04-01T13:16:45;92738.50;;;13.04;95.90
11808;BME280;5961;42.640;23.380;2023-04-01T13:19:21;92697.78;;;13.18;94.27
11808;BME280;5961;42.640;23.380;2023-04-01T13:21:55;92650.53;;;13.22;90.36
11808;BME280;5961;42.640;23.380;2023-04-01T13:24:36;92665.38;;;13.65;87.18
11808;BME280;5961;42.640;23.380;2023-04-01T13:27:08;92683.22;;;14.00;84.33
11808;BME280;5961;42.640;23.380;2023-04-01T13:29:40;92692.31;;;14.31;82.59
11808;BME280;5961;42.640;23.380;2023-04-01T13:32:26;92670.78;;;14.70;82.91
11808;BME280;5961;42.640;23.380;2023-04-01T13:35:08;92684.63;;;15.20;81.74
11808;BME280;5961;42.640;23.380;2023-04-01T13:37:49;92659.88;;;15.57;77.61
11808;BME280;5961;42.640;23.380;2023-04-01T13:40:30;92653.25;;;15.68;72.54
11808;BME280;5961;42.640;23.380;2023-04-01T13:43:02;92668.34;;;15.92;70.07
11808;BME280;5961;42.640;23.380;2023-04-01T13:45:38;92680.22;;;16.29;67.83
11808;BME280;5961;42.640;23.380;2023-04-01T13:48:26;92659.28;;;16.51;65.66
11808;BME280;5961;42.640;23.380;2023-04-01T13:51:16;92613.84;;;16.70;62.62
11808;BME280;5961;42.640;23.380;2023-04-01T13:56:51;92664.75;;;17.54;62.05
11808;BME280;5961;42.640;23.380;2023-04-01T13:59:43;92664.25;;;17.86;57.94
11808;BME280;5961;42.640;23.380;2023-04-01T14:02:47;92645.69;;;18.15;60.55
11808;BME280;5961;42.640;23.380;2023-04-01T14:05:28;92631.69;;;18.43;61.07
11808;BME280;5961;42.640;23.380;2023-04-01T14:08:08;92595.00;;;18.33;57.47
11808;BME280;5961;42.640;23.380;2023-04-01T14:10:42;92605.41;;;18.70;66.52
11808;BME280;5961;42.640;23.380;2023-04-01T14:13:18;92622.03;;;18.65;68.23
11808;BME280;5961;42.640;23.380;2023-04-01T14:16:04;92616.44;;;18.36;68.29
11808;BME280;5961;42.640;23.380;2023-04-01T14:18:51;92613.53;;;18.07;68.86
11808;BME280;5961;42.640;23.380;2023-04-01T14:21:31;92640.53;;;17.81;70.11
11808;BME280;5961;42.640;23.380;2023-04-01T14:24:22;92612.66;;;17.48;71.87
11808;BME280;5961;42.640;23.380;2023-04-01T14:33:21;92599.88;;;16.82;74.78
11808;BME280;5961;42.640;23.380;2023-04-01T14:35:56;92600.97;;;16.58;75.36
11808;BME280;5961;42.640;23.380;2023-04-01T14:38:34;92598.91;;;16.39;76.44
11808;BME280;5961;42.640;23.380;2023-04-01T14:41:13;92598.56;;;16.37;76.49
11808;BME280;5961;42.640;23.380;2023-04-01T14:43:54;92596.72;;;16.30;76.17
11808;BME280;5961;42.640;23.380;2023-04-01T14:47:03;92598.25;;;16.31;75.93
11808;BME280;5961;42.640;23.380;2023-04-01T14:49:34;92594.69;;;16.38;75.94
11808;BME280;5961;42.640;23.380;2023-04-01T14:52:11;92582.28;;;16.51;75.62
11808;BME280;5961;42.640;23.380;2023-04-01T14:54:41;92598.59;;;16.64;74.08
11808;BME280;5961;42.640;23.380;2023-04-01T14:57:11;92596.81;;;16.80;74.44
11808;BME280;5961;42.640;23.380;2023-04-01T14:59:40;92582.84;;;16.92;72.54
11808;BME280;5961;42.640;23.380;2023-04-01T15:05:08;92550.22;;;16.97;71.65
11808;BME280;5961;42.640;23.380;2023-04-01T15:08:12;92593.38;;;17.53;70.66
11808;BME280;5961;42.640;23.380;2023-04-01T15:10:56;92598.19;;;17.65;70.78
11808;BME280;5961;42.640;23.380;2023-04-01T15:13:52;92602.78;;;17.88;70.83
11808;BME280;5961;42.640;23.380;2023-04-01T15:16:27;92575.03;;;17.94;70.67
11808;BME280;5961;42.640;23.380;2023-04-01T15:19:07;92586.94;;;17.93;69.76
11808;BME280;5961;42.640;23.380;2023-04-01T15:21:48;92612.38;;;17.66;69.54
11808;BME280;5961;42.640;23.380;2023-04-01T15:24:21;92626.56;;;17.43;70.48
11808;BME280;5961;42.640;23.380;2023-04-01T15:27:11;92595.25;;;17.33;70.73
11808;BME280;5961;42.640;23.380;2023-04-01T15:30:08;92617.59;;;17.03;72.47